Terminal Aerodrome Forecast
Issued by NWS

Home | Current Version | Previous Version | Text Only | Print | Product List | Glossary On
Versions: 1 2 3 4 5 6 7 8 9 10 11 12 13 14 15 16 17 18 19 20 21 22 23 24 25 26
000
FTUS45 KLKN 242320
TAFELY
TAF
KELY 242320Z 2500/2524 26010KT P6SM -RA VCTS SCT035 OVC050CB
      TEMPO 2500/2502 VRB15G35KT 2SM TSRA OVC020CB
     FM250300 29010KT P6SM VCSH SCT030 OVC050
     FM252000 23010KT 3SM -RA OVC015=

USA.gov is the U.S. government's official web portal to all federal, state and local government web resources and services.